Time;durP1;ratioP1;P1;durP2;ratioP2;P2;SDS_P1;SDS_P2;PMS_P1;PMS_P2;Temp;Humidity;BMP_temperature;BMP_pressure;BME280_temperature;BME280_humidity;BME280_pressure;Samples;Min_cycle;Max_cycle;Signal;HPM_P1;HPM_P2
2021/07/19 00:01:50;;;;;;;4.78;2.88;;;;;;;23.16;54.42;102419.47;5048769;28;20128;-90
2021/07/19 00:04:15;;;;;;;4.85;2.63;;;;;;;23.16;54.18;102421.25;5021190;28;20106;-90
2021/07/19 00:06:41;;;;;;;5.22;3.10;;;;;;;23.15;53.97;102430.88;5021262;28;20491;-89
2021/07/19 00:09:06;;;;;;;3.75;2.80;;;;;;;23.15;54.43;102435.28;5066871;28;20025;-89
2021/07/19 00:11:32;;;;;;;5.97;3.08;;;;;;;23.13;54.45;102431.78;5057326;28;20025;-89
2021/07/19 00:13:57;;;;;;;4.88;2.70;;;;;;;23.16;53.99;102437.00;5063483;28;20029;-89
2021/07/19 00:16:23;;;;;;;7.05;3.35;;;;;;;23.16;54.55;102435.25;5059908;28;20029;-89
2021/07/19 00:18:50;;;;;;;4.10;2.70;;;;;;;23.16;54.04;102435.25;5048398;28;20044;-89
2021/07/19 00:21:15;;;;;;;6.47;3.20;;;;;;;23.16;54.17;102437.88;5051949;28;20049;-89
2021/07/19 00:23:41;;;;;;;4.88;2.92;;;;;;;23.15;54.45;102440.53;5057103;28;20375;-89
2021/07/19 00:26:06;;;;;;;4.30;2.60;;;;;;;23.17;54.16;102439.63;5060219;28;20061;-90
2021/07/19 00:28:32;;;;;;;5.30;2.90;;;;;;;23.19;54.06;102440.50;5041680;28;20035;-88
2021/07/19 00:30:59;;;;;;;3.88;2.80;;;;;;;23.19;54.14;102436.97;5053635;28;20441;-88
2021/07/19 00:33:24;;;;;;;4.40;2.90;;;;;;;23.19;54.67;102445.75;5036728;28;20467;-88
2021/07/19 00:35:50;;;;;;;4.68;3.03;;;;;;;23.19;54.52;102437.84;5053063;28;20022;-89
2021/07/19 00:38:15;;;;;;;5.85;3.03;;;;;;;23.19;54.23;102434.34;5035901;28;20459;-88
2021/07/19 00:40:41;;;;;;;4.03;2.72;;;;;;;23.23;54.62;102432.56;5035686;28;20044;-88
2021/07/19 00:43:07;;;;;;;4.00;2.95;;;;;;;23.20;54.25;102436.97;5035673;28;20029;-87
2021/07/19 00:45:33;;;;;;;8.20;3.10;;;;;;;23.21;54.54;102435.19;5052042;28;20036;-87
2021/07/19 00:48:00;;;;;;;5.25;3.05;;;;;;;23.20;54.77;102430.84;5035551;28;20025;-88
2021/07/19 00:50:28;;;;;;;6.13;2.90;;;;;;;23.19;54.41;102434.34;5052271;28;20033;-88
2021/07/19 00:52:59;;;;;;;6.13;2.83;;;;;;;23.16;54.04;102437.88;5035840;28;20098;-88
2021/07/19 00:55:34;;;;;;;4.40;3.20;;;;;;;23.17;54.15;102439.63;5051943;28;20023;-88
2021/07/19 00:58:01;;;;;;;5.82;3.22;;;;;;;23.19;54.30;102426.47;5051963;28;20025;-88
2021/07/19 01:00:28;;;;;;;3.42;2.70;;;;;;;23.18;53.95;102419.47;5035376;28;20047;-87
2021/07/19 01:02:55;;;;;;;4.53;3.00;;;;;;;23.17;54.46;102408.13;5035379;28;20025;-88
2021/07/19 01:05:21;;;;;;;5.05;3.13;;;;;;;23.19;54.24;102410.69;5035149;28;20484;-87
2021/07/19 01:07:47;;;;;;;5.68;3.00;;;;;;;23.17;54.24;102410.75;5051758;28;20070;-87
2021/07/19 01:10:17;;;;;;;5.60;3.10;;;;;;;23.17;54.13;102413.38;5051839;28;20542;-88
2021/07/19 01:12:49;;;;;;;5.07;3.00;;;;;;;23.16;54.13;102414.22;5052430;28;20029;-89
2021/07/19 01:15:15;;;;;;;5.28;2.80;;;;;;;23.15;54.26;102415.13;5053391;28;20017;-87
2021/07/19 01:17:42;;;;;;;4.90;2.90;;;;;;;23.19;54.23;102416.84;5036023;28;20116;-88
2021/07/19 01:20:08;;;;;;;8.55;3.45;;;;;;;23.20;54.48;102415.94;5054292;28;20021;-87
2021/07/19 01:22:43;;;;;;;4.43;2.53;;;;;;;23.23;54.68;102414.19;5055093;28;20029;-87
2021/07/19 01:25:25;;;;;;;3.88;3.30;;;;;;;23.26;54.72;102411.56;5052705;28;20060;-88
2021/07/19 01:28:16;;;;;;;5.82;2.92;;;;;;;23.26;54.71;102416.81;5052027;28;20101;-88
2021/07/19 01:30:43;;;;;;;4.72;2.92;;;;;;;23.23;54.38;102409.78;5052362;28;20029;-87
2021/07/19 01:33:12;;;;;;;7.20;3.60;;;;;;;23.24;54.76;102418.56;5038035;28;20028;-88
2021/07/19 01:35:40;;;;;;;5.68;3.03;;;;;;;23.22;54.68;102409.84;5056562;28;20374;-87
2021/07/19 01:38:07;;;;;;;7.13;3.00;;;;;;;23.21;54.58;102408.94;5057154;28;20043;-87
2021/07/19 01:40:35;;;;;;;5.40;2.88;;;;;;;23.20;54.42;102405.44;5038920;28;20036;-87
2021/07/19 01:43:01;;;;;;;6.70;3.30;;;;;;;23.22;54.46;102407.19;5055880;28;20036;-87
2021/07/19 01:45:28;;;;;;;5.93;3.13;;;;;;;23.22;54.52;102405.44;5043081;28;20040;-87
2021/07/19 01:47:57;;;;;;;5.60;3.13;;;;;;;23.21;54.33;102398.44;5041240;28;20024;-87
2021/07/19 01:50:22;;;;;;;4.85;2.95;;;;;;;23.20;54.43;102405.44;5042834;28;20025;-87
2021/07/19 01:52:49;;;;;;;6.20;3.20;;;;;;;23.19;54.26;102395.84;5032809;28;20020;-88
2021/07/19 01:55:15;;;;;;;5.25;3.13;;;;;;;23.23;54.47;102403.69;5060885;28;20416;-87
2021/07/19 01:57:41;;;;;;;4.78;3.05;;;;;;;23.22;54.31;102400.19;5039731;28;20075;-88
2021/07/19 02:00:08;;;;;;;6.47;3.00;;;;;;;23.22;54.56;102401.94;5022326;28;20124;-88
2021/07/19 02:02:37;;;;;;;4.45;3.00;;;;;;;23.22;54.21;102404.59;5056527;28;20028;-88
2021/07/19 02:05:07;;;;;;;4.47;3.03;;;;;;;23.21;54.84;102408.94;5054953;28;20029;-88
2021/07/19 02:07:34;;;;;;;5.78;2.90;;;;;;;23.20;54.54;102409.84;5055225;28;20032;-89
2021/07/19 02:10:00;;;;;;;4.15;2.67;;;;;;;23.19;54.33;102406.34;5055294;28;20436;-88
2021/07/19 02:12:26;;;;;;;4.45;2.90;;;;;;;23.20;54.48;102394.94;5021916;28;20063;-87
2021/07/19 02:14:51;;;;;;;4.00;3.25;;;;;;;23.19;54.38;102397.56;5021725;28;20033;-88
2021/07/19 02:17:19;;;;;;;5.47;3.13;;;;;;;23.22;54.39;102407.19;5038360;28;20037;-88
2021/07/19 02:19:47;;;;;;;5.75;3.05;;;;;;;23.21;54.34;102406.31;5038313;28;20035;-88
2021/07/19 02:22:13;;;;;;;5.35;3.08;;;;;;;23.23;54.84;102407.16;5054463;28;20032;-88
2021/07/19 02:24:39;;;;;;;3.10;2.70;;;;;;;23.23;54.84;102408.94;5037888;28;20022;-88
2021/07/19 02:27:07;;;;;;;4.68;3.05;;;;;;;23.20;54.57;102408.06;5037835;28;20106;-88
2021/07/19 02:29:33;;;;;;;6.20;2.90;;;;;;;23.20;54.55;102408.06;5054511;28;20036;-89
2021/07/19 02:32:01;;;;;;;4.13;3.03;;;;;;;23.21;54.58;102403.69;5038109;28;20064;-88
2021/07/19 02:34:27;;;;;;;4.53;2.83;;;;;;;23.23;54.93;102399.28;5054737;28;20039;-88
2021/07/19 02:36:53;;;;;;;5.93;3.13;;;;;;;23.23;54.66;102415.06;5054587;28;20037;-88
2021/07/19 02:39:19;;;;;;;4.47;3.20;;;;;;;23.22;54.54;102426.44;5037894;28;20490;-88
2021/07/19 02:41:46;;;;;;;4.70;3.00;;;;;;;23.22;54.84;102422.97;5021302;28;20124;-88
2021/07/19 02:44:13;;;;;;;3.90;2.83;;;;;;;23.20;54.85;102421.19;5037848;28;20029;-88
2021/07/19 02:46:39;;;;;;;5.30;3.28;;;;;;;23.19;54.78;102422.09;5037976;28;20477;-89
2021/07/19 02:49:10;;;;;;;4.65;3.22;;;;;;;23.22;54.84;102426.44;5037522;28;20036;-88
2021/07/19 02:51:36;;;;;;;3.92;2.90;;;;;;;23.23;54.89;102424.69;5037885;28;20482;-88
2021/07/19 02:54:03;;;;;;;4.13;3.00;;;;;;;23.20;54.99;102422.97;5037468;28;20094;-88
2021/07/19 02:56:29;;;;;;;6.13;3.10;;;;;;;23.16;54.43;102422.09;5037651;28;20056;-88
2021/07/19 02:58:55;;;;;;;4.40;2.92;;;;;;;23.18;54.57;102422.97;5070650;28;20028;-88
2021/07/19 03:01:21;;;;;;;3.97;3.00;;;;;;;23.19;54.79;102426.47;5021072;28;20078;-89
2021/07/19 03:03:50;;;;;;;4.60;3.30;;;;;;;23.17;54.64;102429.13;5054045;28;20032;-88
2021/07/19 03:06:21;;;;;;;6.15;3.33;;;;;;;23.15;54.59;102422.16;5055447;28;20041;-88
2021/07/19 03:08:48;;;;;;;5.22;3.40;;;;;;;23.13;53.90;102418.66;5054095;28;20024;-87
2021/07/19 03:11:25;;;;;;;5.63;3.35;;;;;;;23.14;54.73;102418.63;5037166;28;20032;-88
2021/07/19 03:13:55;;;;;;;4.28;3.10;;;;;;;23.15;54.18;102415.13;5054275;28;20032;-87
2021/07/19 03:16:22;;;;;;;5.78;3.55;;;;;;;23.16;54.24;102416.84;5053563;28;20059;-87
2021/07/19 03:18:48;;;;;;;5.45;3.28;;;;;;;23.16;54.21;102422.09;5036934;28;20029;-88
2021/07/19 03:21:16;;;;;;;4.53;3.17;;;;;;;23.16;54.22;102423.88;5053524;28;20132;-88
2021/07/19 03:23:44;;;;;;;5.35;3.35;;;;;;;23.14;54.11;102418.63;5053333;28;20029;-88
2021/07/19 03:26:10;;;;;;;4.75;3.22;;;;;;;23.14;54.30;102423.00;5054454;28;20078;-87
2021/07/19 03:28:37;;;;;;;5.45;3.10;;;;;;;23.15;54.40;102423.00;5036988;28;20029;-88
2021/07/19 03:31:04;;;;;;;4.70;3.25;;;;;;;23.16;54.44;102421.25;5054457;28;20104;-88
2021/07/19 03:33:30;;;;;;;5.82;3.55;;;;;;;23.15;54.18;102423.00;5054306;28;20383;-88
2021/07/19 03:35:56;;;;;;;5.68;3.25;;;;;;;23.15;54.19;102425.63;5052997;28;20112;-88
2021/07/19 03:38:22;;;;;;;5.80;3.20;;;;;;;23.15;54.23;102423.00;5036548;28;20114;-88
2021/07/19 03:40:49;;;;;;;5.63;3.50;;;;;;;23.14;54.17;102429.13;5036368;28;20054;-88
2021/07/19 03:43:15;;;;;;;6.32;3.33;;;;;;;23.14;54.36;102426.50;5036355;28;20029;-88
2021/07/19 03:45:45;;;;;;;4.57;3.50;;;;;;;23.11;54.17;102426.53;5019907;28;20029;-88
2021/07/19 03:48:10;;;;;;;4.47;3.30;;;;;;;23.11;54.01;102425.66;5036768;28;20487;-88
2021/07/19 03:50:37;;;;;;;4.53;3.20;;;;;;;23.12;54.07;102417.75;5036138;28;20036;-88
2021/07/19 03:53:05;;;;;;;5.55;3.30;;;;;;;23.11;54.15;102418.66;5036559;28;20029;-87
2021/07/19 03:55:31;;;;;;;4.75;3.50;;;;;;;23.14;54.16;102420.38;5036964;28;20444;-87
2021/07/19 03:57:56;;;;;;;7.22;3.40;;;;;;;23.14;53.97;102423.00;5036165;28;20053;-87
2021/07/19 04:00:22;;;;;;;4.32;3.33;;;;;;;23.15;54.15;102423.00;5036423;28;20372;-88
2021/07/19 04:02:53;;;;;;;4.05;2.95;;;;;;;23.14;54.08;102423.00;5035994;28;20215;-88
2021/07/19 04:05:21;;;;;;;4.95;3.40;;;;;;;23.15;54.05;102424.78;5052437;28;20029;-88
2021/07/19 04:07:48;;;;;;;6.63;3.40;;;;;;;23.14;53.80;102423.00;5053153;28;20116;-87
2021/07/19 04:10:16;;;;;;;5.45;3.10;;;;;;;23.13;54.32;102421.28;5035859;28;20029;-87
2021/07/19 04:12:44;;;;;;;6.13;3.28;;;;;;;23.12;54.39;102417.75;5052468;28;20025;-88
2021/07/19 04:15:10;;;;;;;9.73;3.95;;;;;;;23.15;54.24;102416.88;5035646;28;20475;-87
2021/07/19 04:17:35;;;;;;;6.22;3.67;;;;;;;23.16;54.37;102418.63;5052668;28;20029;-88
2021/07/19 04:20:05;;;;;;;4.82;3.05;;;;;;;23.16;54.46;102416.84;5052348;28;20074;-87
2021/07/19 04:22:32;;;;;;;4.72;3.03;;;;;;;23.17;54.57;102415.13;5052132;28;20078;-86
2021/07/19 04:24:58;;;;;;;5.93;3.13;;;;;;;23.17;54.01;102417.75;5052423;28;20104;-86
2021/07/19 04:27:24;;;;;;;5.30;3.67;;;;;;;23.19;54.12;102411.59;5035615;28;20507;-85
2021/07/19 04:29:51;;;;;;;7.55;3.78;;;;;;;23.17;53.75;102408.13;5035551;28;20090;-86
2021/07/19 04:32:20;;;;;;;6.82;3.50;;;;;;;23.16;53.86;102403.72;5053538;28;20041;-86
2021/07/19 04:34:46;;;;;;;4.60;3.53;;;;;;;23.21;54.13;102408.94;5035819;28;20025;-86
2021/07/19 04:37:13;;;;;;;4.97;3.28;;;;;;;23.21;53.84;102411.56;5022061;28;20045;-85
2021/07/19 04:39:39;;;;;;;5.93;3.50;;;;;;;23.24;53.95;102413.31;5054756;28;20029;-85
2021/07/19 04:42:09;;;;;;;5.40;3.30;;;;;;;23.23;53.71;102411.56;5037405;28;20029;-85
2021/07/19 04:44:35;;;;;;;6.30;3.40;;;;;;;23.22;54.12;102401.94;5053542;28;20056;-84
2021/07/19 04:47:02;;;;;;;5.47;3.60;;;;;;;23.24;53.97;102397.56;5036804;28;20029;-85
2021/07/19 04:49:28;;;;;;;7.68;3.53;;;;;;;23.26;53.75;102411.56;5052161;28;20056;-85
2021/07/19 04:51:55;;;;;;;3.78;3.22;;;;;;;23.26;53.71;102406.31;5052396;28;20063;-85
2021/07/19 04:54:26;;;;;;;5.05;3.35;;;;;;;23.25;53.30;102415.03;5035546;28;20021;-85
2021/07/19 04:56:59;;;;;;;4.72;3.30;;;;;;;23.27;53.80;102411.50;5051848;28;20361;-86
2021/07/19 04:59:29;;;;;;;5.20;3.50;;;;;;;23.27;54.23;102416.78;5051852;28;20382;-86
2021/07/19 05:01:56;;;;;;;6.50;3.38;;;;;;;23.28;53.98;102418.53;5051840;28;20024;-85
2021/07/19 05:04:25;;;;;;;4.97;3.20;;;;;;;23.27;53.56;102411.50;5052895;28;20025;-86
2021/07/19 05:06:52;;;;;;;5.22;3.50;;;;;;;23.25;53.82;102401.91;5035672;28;20037;-87
2021/07/19 05:09:19;;;;;;;8.10;3.85;;;;;;;23.31;53.89;102393.97;5053175;28;20032;-86
2021/07/19 05:11:46;;;;;;;5.65;3.58;;;;;;;23.33;53.76;102398.34;5035314;28;20021;-87
2021/07/19 05:14:12;;;;;;;13.90;4.03;;;;;;;23.33;54.03;102408.84;5035794;28;20040;-87
2021/07/19 05:16:39;;;;;;;17.92;4.63;;;;;;;23.35;54.01;102414.09;5051771;28;20037;-84
2021/07/19 05:19:05;;;;;;;9.90;4.03;;;;;;;23.25;54.04;102415.91;5055140;28;20028;-84
2021/07/19 05:21:35;;;;;;;9.70;4.25;;;;;;;23.15;53.72;102423.00;5022553;28;20364;-84
2021/07/19 05:24:01;;;;;;;7.28;4.28;;;;;;;23.16;54.05;102413.38;5038763;28;20025;-84
2021/07/19 05:26:26;;;;;;;9.05;4.03;;;;;;;23.16;53.85;102402.88;5055090;28;20102;-81
2021/07/19 05:28:52;;;;;;;8.88;4.10;;;;;;;23.17;53.81;102408.13;5022362;28;20057;-85
2021/07/19 05:31:17;;;;;;;6.65;3.90;;;;;;;23.31;53.21;102402.72;5038816;28;20044;-81
2021/07/19 05:33:43;;;;;;;8.45;4.18;;;;;;;23.41;52.98;102404.41;5038745;28;20021;-81
2021/07/19 05:36:09;;;;;;;7.82;4.28;;;;;;;24.04;51.73;102410.78;5038711;28;20021;-87
2021/07/19 05:38:35;;;;;;;9.52;4.63;;;;;;;25.81;46.51;102403.66;5038679;28;20125;-87
2021/07/19 05:41:00;;;;;;;11.73;4.53;;;;;;;25.99;45.91;102406.88;5055336;28;20084;-86
2021/07/19 05:43:26;;;;;;;8.73;4.50;;;;;;;26.33;45.08;102407.03;5022092;28;20082;-85
2021/07/19 05:45:51;;;;;;;6.43;4.15;;;;;;;26.63;43.35;102396.72;5038415;28;20087;-84
2021/07/19 05:48:16;;;;;;;9.30;4.57;;;;;;;26.66;42.97;102405.44;5021918;28;20029;-84
2021/07/19 05:50:42;;;;;;;8.65;3.92;;;;;;;25.84;44.41;102402.75;5021789;28;20061;-84
2021/07/19 05:53:09;;;;;;;7.65;3.78;;;;;;;24.70;47.05;102409.94;5038724;28;20067;-83
2021/07/19 05:55:34;;;;;;;10.07;3.90;;;;;;;24.31;48.05;102406.06;5022372;28;20021;-84
2021/07/19 05:58:00;;;;;;;6.32;3.80;;;;;;;24.21;47.82;102405.28;5038166;28;20086;-82
2021/07/19 06:00:26;;;;;;;9.45;3.80;;;;;;;25.95;43.80;102405.19;5021703;28;20033;-83
2021/07/19 06:02:52;;;;;;;8.18;3.70;;;;;;;27.10;40.74;102394.69;5054688;28;20451;-84
2021/07/19 06:05:17;;;;;;;11.10;4.10;;;;;;;27.24;40.16;102397.91;5021545;28;20442;-84
2021/07/19 06:07:43;;;;;;;7.72;4.10;;;;;;;27.76;38.99;102407.97;5037993;28;20032;-84
2021/07/19 06:10:11;;;;;;;7.85;3.97;;;;;;;27.55;39.20;102397.09;5038031;28;20408;-84
2021/07/19 06:12:37;;;;;;;9.63;4.43;;;;;;;26.93;40.50;102395.09;5038121;28;20049;-84
2021/07/19 06:15:05;;;;;;;6.20;3.80;;;;;;;26.60;41.44;102399.44;5038332;28;20029;-84
2021/07/19 06:17:33;;;;;;;9.68;4.07;;;;;;;28.16;38.40;102394.50;5055809;28;20021;-84
2021/07/19 06:19:58;;;;;;;6.90;4.03;;;;;;;28.51;37.22;102390.78;5054393;28;20029;-84
2021/07/19 06:22:23;;;;;;;5.65;3.60;;;;;;;28.76;36.63;102387.34;5037780;28;20040;-83
2021/07/19 06:24:50;;;;;;;7.57;3.90;;;;;;;29.10;35.86;102389.78;5037677;28;20033;-84
2021/07/19 06:27:17;;;;;;;6.30;3.28;;;;;;;29.24;35.62;102380.50;5054204;28;20044;-84
2021/07/19 06:29:43;;;;;;;7.38;3.97;;;;;;;29.03;36.15;102376.78;5053675;28;20064;-84
2021/07/19 06:32:08;;;;;;;8.95;4.15;;;;;;;28.79;36.15;102384.63;5055632;28;20428;-84
2021/07/19 06:34:34;;;;;;;9.05;4.20;;;;;;;25.72;42.93;102393.31;5061254;28;20029;-83
2021/07/19 06:36:59;;;;;;;9.27;3.83;;;;;;;24.54;46.06;102411.94;5038450;28;20120;-86
2021/07/19 06:39:24;;;;;;;6.40;3.92;;;;;;;24.04;47.40;102410.78;5021675;28;20139;-87
2021/07/19 06:41:50;;;;;;;10.38;3.75;;;;;;;23.80;47.99;102411.91;5037687;28;20025;-88
2021/07/19 06:44:15;;;;;;;10.40;3.75;;;;;;;23.64;47.90;102423.44;5054304;28;20383;-84
2021/07/19 06:46:41;;;;;;;9.20;3.50;;;;;;;23.58;47.80;102417.38;5054398;28;20071;-85
2021/07/19 06:49:06;;;;;;;9.23;3.90;;;;;;;23.42;47.84;102423.66;5037458;28;20048;-88
2021/07/19 06:51:32;;;;;;;7.32;3.47;;;;;;;23.37;48.01;102425.47;5021112;28;20035;-90
2021/07/19 06:53:58;;;;;;;6.85;3.60;;;;;;;23.33;48.42;102416.72;5037613;28;20029;-89
2021/07/19 06:56:23;;;;;;;9.30;4.05;;;;;;;23.30;48.46;102423.75;5053983;28;20074;-87
2021/07/19 06:58:48;;;;;;;10.15;3.83;;;;;;;23.30;48.73;102431.63;5037583;28;20032;-88
2021/07/19 07:01:14;;;;;;;8.23;3.83;;;;;;;23.31;48.96;102431.63;5056464;28;20067;-88
2021/07/19 07:03:39;;;;;;;10.68;4.05;;;;;;;23.24;48.88;102426.44;5057461;28;20025;-87
2021/07/19 07:06:05;;;;;;;7.80;3.70;;;;;;;23.24;48.79;102429.06;5057222;28;20492;-88
2021/07/19 07:08:30;;;;;;;8.02;3.80;;;;;;;23.23;48.86;102422.06;5024397;28;20029;-88
2021/07/19 07:10:58;;;;;;;7.28;3.92;;;;;;;23.27;49.19;102418.53;5039774;28;20028;-87
2021/07/19 07:13:23;;;;;;;9.68;4.10;;;;;;;23.29;49.08;102422.88;5021632;28;20039;-86
2021/07/19 07:15:49;;;;;;;9.57;4.00;;;;;;;23.29;49.23;102424.66;5037656;28;20117;-87
2021/07/19 07:18:15;;;;;;;6.47;3.75;;;;;;;23.33;49.06;102421.13;5020856;28;20063;-88
2021/07/19 07:20:41;;;;;;;7.13;3.65;;;;;;;23.45;48.47;102434.13;5054511;28;20056;-86
2021/07/19 07:23:06;;;;;;;10.48;4.07;;;;;;;23.62;47.85;102426.94;5036619;28;20104;-87
2021/07/19 07:25:32;;;;;;;7.20;3.95;;;;;;;23.86;47.45;102425.00;5020297;28;20029;-87
2021/07/19 07:27:57;;;;;;;6.28;3.78;;;;;;;24.80;44.57;102424.72;5036549;28;20049;-88
2021/07/19 07:30:25;;;;;;;11.32;4.47;;;;;;;24.27;46.11;102430.66;5053397;28;20028;-87
2021/07/19 07:32:51;;;;;;;7.00;3.80;;;;;;;23.92;46.88;102422.28;5053345;28;20029;-88
2021/07/19 07:35:16;;;;;;;6.57;3.58;;;;;;;23.93;46.63;102421.44;5054392;28;20028;-88
2021/07/19 07:37:42;;;;;;;6.28;3.42;;;;;;;23.81;46.70;102424.19;5036593;28;20099;-88
2021/07/19 07:40:09;;;;;;;7.70;3.95;;;;;;;23.67;47.19;102423.41;5036570;28;20383;-88
2021/07/19 07:42:35;;;;;;;8.55;3.95;;;;;;;23.52;47.25;102421.81;5052445;28;20021;-88
2021/07/19 07:45:00;;;;;;;10.80;3.75;;;;;;;23.40;47.83;102422.78;5036515;28;20033;-89
2021/07/19 07:47:26;;;;;;;6.47;3.47;;;;;;;23.30;47.67;102418.50;5036399;28;20125;-88
2021/07/19 07:49:52;;;;;;;9.68;3.78;;;;;;;23.24;47.95;102427.31;5052847;28;20140;-87
2021/07/19 07:52:18;;;;;;;6.07;3.47;;;;;;;23.20;48.08;102423.84;5053110;28;20107;-88
2021/07/19 07:54:44;;;;;;;9.80;4.00;;;;;;;23.17;48.45;102423.88;5053287;28;20025;-89
2021/07/19 07:57:09;;;;;;;7.32;3.55;;;;;;;23.19;48.84;102429.97;5052987;28;20395;-89
2021/07/19 07:59:36;;;;;;;8.32;4.13;;;;;;;23.11;49.02;102431.78;5036258;28;20032;-89
2021/07/19 08:02:03;;;;;;;7.07;3.72;;;;;;;23.16;49.11;102434.38;5053049;28;20035;-90
2021/07/19 08:04:28;;;;;;;9.30;3.92;;;;;;;23.12;49.15;102435.28;5035969;28;20127;-89
2021/07/19 08:06:56;;;;;;;7.63;3.92;;;;;;;23.15;48.95;102444.00;5019723;28;20102;-89
2021/07/19 08:09:21;;;;;;;7.28;3.80;;;;;;;23.15;49.05;102437.91;5036051;28;20035;-88
2021/07/19 08:11:46;;;;;;;8.82;3.80;;;;;;;23.04;49.16;102443.22;5036130;28;20028;-88
2021/07/19 08:14:12;;;;;;;8.00;3.75;;;;;;;23.04;49.09;102439.72;5052988;28;20040;-88
2021/07/19 08:16:39;;;;;;;9.43;3.72;;;;;;;23.06;49.41;102436.22;5020337;28;20032;-88
2021/07/19 08:19:08;;;;;;;11.68;4.10;;;;;;;23.08;49.10;102429.19;5053723;28;20029;-88
2021/07/19 08:21:35;;;;;;;11.23;3.60;;;;;;;23.14;48.91;102431.75;5053026;28;20107;-91
2021/07/19 08:24:00;;;;;;;9.60;4.05;;;;;;;23.11;49.49;102436.19;5052822;28;20467;-89
2021/07/19 08:26:26;;;;;;;8.88;3.70;;;;;;;23.20;49.12;102438.72;5035870;28;20094;-88
2021/07/19 08:28:55;;;;;;;12.00;3.65;;;;;;;23.27;49.34;102429.03;5053520;28;20596;-88
2021/07/19 08:31:23;;;;;;;11.85;3.83;;;;;;;23.25;49.41;102428.19;5036058;28;20066;-86
2021/07/19 08:33:48;;;;;;;12.48;3.60;;;;;;;23.26;50.33;102429.94;5052056;28;20028;-86
2021/07/19 08:36:14;;;;;;;10.02;3.78;;;;;;;23.15;51.41;102432.66;5052683;28;20423;-83
2021/07/19 08:38:39;;;;;;;7.72;3.47;;;;;;;23.14;51.19;102431.75;5035631;28;20033;-82
2021/07/19 08:41:05;;;;;;;8.85;3.63;;;;;;;23.27;50.74;102429.03;5035495;28;20550;-81
2021/07/19 08:43:32;;;;;;;8.57;4.00;;;;;;;23.25;50.41;102429.03;5035499;28;20029;-82
2021/07/19 08:45:58;;;;;;;10.80;4.10;;;;;;;23.20;52.06;102428.22;5051846;28;20021;-85
2021/07/19 08:48:24;;;;;;;8.98;4.05;;;;;;;23.05;50.64;102420.47;5035351;28;20551;-83
2021/07/19 08:50:49;;;;;;;6.80;3.67;;;;;;;23.02;51.27;102415.22;5035415;28;20029;-84
2021/07/19 08:53:15;;;;;;;9.10;3.60;;;;;;;23.07;51.45;102421.31;5037573;28;20025;-84
2021/07/19 08:55:42;;;;;;;11.27;3.72;;;;;;;23.04;51.13;102416.06;5023356;28;20079;-84
2021/07/19 08:58:11;;;;;;;12.60;4.25;;;;;;;23.04;51.29;102421.31;5039506;28;20057;-84
2021/07/19 09:00:36;;;;;;;9.20;4.05;;;;;;;22.98;53.64;102420.47;5039781;28;20425;-85
2021/07/19 09:03:02;;;;;;;10.07;4.15;;;;;;;22.97;51.13;102417.84;5039210;28;20052;-85
2021/07/19 09:05:29;;;;;;;10.52;4.00;;;;;;;22.90;51.29;102413.53;5022639;28;20079;-85
2021/07/19 09:07:55;;;;;;;12.93;4.20;;;;;;;22.84;50.68;102419.69;5055842;28;20501;-85
2021/07/19 09:10:26;;;;;;;9.23;4.38;;;;;;;22.88;50.40;102420.53;5039247;28;20431;-86
2021/07/19 09:12:52;;;;;;;12.93;4.68;;;;;;;22.87;50.47;102419.69;5055957;28;20025;-85
2021/07/19 09:15:36;;;;;;;11.38;4.13;;;;;;;22.86;50.74;102422.31;5055912;28;20029;-86
2021/07/19 09:18:05;;;;;;;10.80;5.03;;;;;;;22.78;51.02;102425.84;5057040;28;20049;-85
2021/07/19 09:20:35;;;;;;;8.48;4.50;;;;;;;22.87;50.68;102416.19;5055565;28;20025;-85
2021/07/19 09:23:01;;;;;;;12.18;4.90;;;;;;;22.83;51.10;102419.72;5057100;28;20102;-85
2021/07/19 09:25:30;;;;;;;9.00;4.95;;;;;;;22.87;50.94;102421.44;5038755;28;20028;-86
2021/07/19 09:28:02;;;;;;;11.45;4.95;;;;;;;22.73;50.41;102421.50;5038786;28;20045;-86
2021/07/19 09:30:29;;;;;;;12.73;5.50;;;;;;;22.67;50.96;102424.16;5056930;28;20531;-86
2021/07/19 09:33:00;;;;;;;10.30;4.78;;;;;;;22.68;50.88;102413.66;5055462;28;20287;-86
2021/07/19 09:35:31;;;;;;;9.07;4.53;;;;;;;22.74;50.85;102418.00;5039418;28;20028;-85
2021/07/19 09:38:05;;;;;;;9.65;4.93;;;;;;;22.77;50.85;102404.88;5055268;28;20028;-86
2021/07/19 09:40:33;;;;;;;9.57;4.80;;;;;;;22.70;50.64;102413.66;5038794;28;20059;-86
2021/07/19 09:42:58;;;;;;;11.38;4.78;;;;;;;22.72;50.88;102415.41;5055319;28;20029;-86
2021/07/19 09:45:27;;;;;;;9.52;5.07;;;;;;;22.70;50.74;102414.53;5022014;28;20032;-85
2021/07/19 09:48:00;;;;;;;9.23;4.90;;;;;;;22.73;50.77;102397.88;5055202;28;20020;-86
2021/07/19 09:50:26;;;;;;;9.27;5.10;;;;;;;22.77;50.41;102410.13;5055157;28;20051;-86
2021/07/19 09:52:51;;;;;;;10.50;5.47;;;;;;;22.72;50.90;102407.53;5038779;28;20434;-86
2021/07/19 09:55:26;;;;;;;11.10;5.30;;;;;;;22.70;50.85;102414.53;5039629;28;20112;-86
2021/07/19 09:57:55;;;;;;;17.23;5.78;;;;;;;22.64;50.52;102411.94;5038399;28;20049;-86
2021/07/19 10:00:22;;;;;;;10.07;5.55;;;;;;;22.55;50.64;102409.38;5054828;28;20025;-85
2021/07/19 10:02:47;;;;;;;11.13;5.60;;;;;;;22.53;50.72;102411.13;5054960;28;20032;-86
2021/07/19 10:05:26;;;;;;;9.75;5.85;;;;;;;22.58;50.43;102397.13;5020327;28;20115;-86
2021/07/19 10:07:52;;;;;;;9.23;5.82;;;;;;;22.54;50.66;102405.88;5054728;28;20025;-87
2021/07/19 10:10:18;;;;;;;13.00;5.72;;;;;;;22.58;50.61;102410.25;5054873;28;20057;-86
2021/07/19 10:12:43;;;;;;;10.90;5.55;;;;;;;22.60;50.57;102410.19;5056223;28;20472;-86
2021/07/19 10:15:11;;;;;;;10.13;5.75;;;;;;;22.62;50.55;102400.56;5038131;28;20178;-86
2021/07/19 10:17:36;;;;;;;8.80;5.78;;;;;;;22.70;50.54;102392.66;5054383;28;20028;-86
2021/07/19 10:20:03;;;;;;;13.27;6.43;;;;;;;22.62;50.29;102394.47;5037813;28;20025;-86
2021/07/19 10:22:29;;;;;;;9.32;5.40;;;;;;;22.68;50.13;102395.28;5054424;28;20463;-86
2021/07/19 10:24:55;;;;;;;12.93;5.72;;;;;;;22.75;49.46;102389.13;5037722;28;20060;-86
2021/07/19 10:27:23;;;;;;;8.93;5.55;;;;;;;22.83;49.24;102389.06;5021150;28;20049;-86
2021/07/19 10:29:49;;;;;;;12.75;5.90;;;;;;;22.92;50.29;102390.75;5054357;28;20106;-86
2021/07/19 10:32:18;;;;;;;9.88;5.35;;;;;;;22.93;49.74;102384.63;5054333;28;20040;-85
2021/07/19 10:34:48;;;;;;;14.07;5.47;;;;;;;22.88;49.69;102383.78;5054206;28;20058;-84
2021/07/19 10:37:22;;;;;;;11.02;5.43;;;;;;;22.80;49.83;102373.38;5054393;28;20027;-85
2021/07/19 10:39:51;;;;;;;10.10;5.78;;;;;;;22.77;49.56;102376.84;5054067;28;20426;-81
2021/07/19 10:42:17;;;;;;;11.82;5.78;;;;;;;22.79;49.41;102380.34;5037604;28;20434;-86
2021/07/19 10:44:43;;;;;;;10.75;5.38;;;;;;;22.86;49.33;102388.19;5055206;28;20025;-85
2021/07/19 10:47:22;;;;;;;13.18;5.15;;;;;;;23.16;49.84;102389.72;5054135;28;20021;-87
2021/07/19 10:50:04;;;;;;;11.80;5.85;;;;;;;23.11;50.78;102378.41;5037500;28;20068;-83
2021/07/19 10:52:38;;;;;;;11.07;5.97;;;;;;;22.97;48.51;102373.22;5054117;28;20121;-85
2021/07/19 10:55:05;;;;;;;10.82;5.82;;;;;;;22.98;49.02;102377.59;5053906;28;20043;-85
2021/07/19 10:57:35;;;;;;;10.90;5.90;;;;;;;22.98;48.96;102374.97;5037441;28;20122;-84
2021/07/19 11:00:05;;;;;;;9.38;5.68;;;;;;;22.98;48.66;102375.84;5054127;28;20379;-86
2021/07/19 11:02:30;;;;;;;7.95;5.28;;;;;;;22.97;48.36;102373.22;5053528;28;20051;-83
2021/07/19 11:04:56;;;;;;;11.30;5.88;;;;;;;22.95;48.90;102378.50;5053388;28;20032;-84
2021/07/19 11:07:25;;;;;;;9.90;5.60;;;;;;;22.96;47.64;102374.97;5053688;28;20033;-84
2021/07/19 11:09:52;;;;;;;11.82;5.53;;;;;;;22.97;48.42;102367.97;5036955;28;20029;-84
2021/07/19 11:12:18;;;;;;;9.85;5.35;;;;;;;22.96;48.65;102374.13;5053576;28;20033;-83
2021/07/19 11:14:55;;;;;;;8.13;5.65;;;;;;;22.95;48.53;102364.47;5037032;28;20154;-84
2021/07/19 11:17:22;;;;;;;9.73;5.80;;;;;;;22.94;50.11;102368.88;5054281;28;20386;-84
2021/07/19 11:19:49;;;;;;;7.82;5.30;;;;;;;22.96;49.31;102372.34;5020379;28;20029;-85
2021/07/19 11:22:26;;;;;;;10.23;5.43;;;;;;;22.94;49.15;102366.25;5053165;28;20029;-84
2021/07/19 11:24:55;;;;;;;10.20;6.18;;;;;;;22.94;48.84;102358.38;5053180;28;20075;-84